createdAt,value
2022-12-29T00:00:02.663Z,6.34
2022-12-29T00:00:35.663Z,6.34
2022-12-29T00:01:06.423Z,6.23
2022-12-29T00:01:39.322Z,6.23
2022-12-29T00:02:10.476Z,6.23
2022-12-29T00:02:43.491Z,6.34
2022-12-29T00:03:14.597Z,6.34
2022-12-29T00:03:47.255Z,6.34
2022-12-29T00:04:18.391Z,6.34
2022-12-29T00:04:51.284Z,6.34
2022-12-29T00:05:22.210Z,6.34
2022-12-29T00:05:56.215Z,6.34
2022-12-29T00:06:26.246Z,6.34
2022-12-29T00:06:59.285Z,6.34
2022-12-29T00:07:30.045Z,6.52
2022-12-29T00:08:03.216Z,6.52
2022-12-29T00:08:34.475Z,6.52
2022-12-29T00:09:07.217Z,6.52
2022-12-29T00:09:37.992Z,6.34
2022-12-29T00:10:10.995Z,6.52
2022-12-29T00:10:42.070Z,6.52
2022-12-29T00:11:15.020Z,6.34
2022-12-29T00:11:45.991Z,6.34
2022-12-29T00:12:18.875Z,6.52
2022-12-29T00:12:50.007Z,6.34
2022-12-29T00:13:22.723Z,6.34
2022-12-29T00:13:53.885Z,6.34
2022-12-29T00:14:26.726Z,6.34
2022-12-29T00:14:57.905Z,6.34
2022-12-29T00:15:30.789Z,6.45
2022-12-29T00:16:01.823Z,6.45
2022-12-29T00:16:34.700Z,6.45
2022-12-29T00:17:05.838Z,6.45
2022-12-29T00:17:38.571Z,6.34
2022-12-29T00:18:09.817Z,6.34
2022-12-29T00:18:42.763Z,6.34
2022-12-29T00:19:13.681Z,6.34
2022-12-29T00:19:46.459Z,6.52
2022-12-29T00:20:17.560Z,6.52
2022-12-29T00:20:50.511Z,6.52
2022-12-29T00:21:21.666Z,6.52
2022-12-29T00:21:54.341Z,6.52
2022-12-29T00:22:25.544Z,6.41
2022-12-29T00:22:58.449Z,6.41
2022-12-29T00:23:29.579Z,6.41
2022-12-29T00:24:02.485Z,6.41
2022-12-29T00:24:33.463Z,6.41
2022-12-29T00:25:06.405Z,6.41
2022-12-29T00:25:37.517Z,6.41
2022-12-29T00:26:10.247Z,6.41
2022-12-29T00:26:41.385Z,6.41
2022-12-29T00:27:14.295Z,6.41
2022-12-29T00:27:45.362Z,6.41
2022-12-29T00:28:18.165Z,6.41
2022-12-29T00:28:49.293Z,6.41
2022-12-29T00:29:22.113Z,6.41
2022-12-29T00:29:53.358Z,6.52
2022-12-29T00:30:26.221Z,6.52
2022-12-29T00:30:57.145Z,6.52
2022-12-29T00:31:30.313Z,6.52
2022-12-29T00:32:01.044Z,6.52
2022-12-29T00:32:33.892Z,6.52
2022-12-29T00:33:05.130Z,6.52
2022-12-29T00:33:38.030Z,6.52
2022-12-29T00:34:08.967Z,6.52
2022-12-29T00:34:42.121Z,6.52
2022-12-29T00:35:13.074Z,6.52
2022-12-29T00:35:46.113Z,6.52
2022-12-29T00:36:16.918Z,6.52
2022-12-29T00:36:49.859Z,6.52
2022-12-29T00:37:20.977Z,6.52
2022-12-29T00:37:53.900Z,6.70
2022-12-29T00:38:24.814Z,6.70
2022-12-29T00:38:57.727Z,6.59
2022-12-29T00:39:28.850Z,6.41
2022-12-29T00:40:01.928Z,6.41
2022-12-29T00:40:32.686Z,6.41
2022-12-29T00:41:05.669Z,6.41
2022-12-29T00:41:36.747Z,6.41
2022-12-29T00:42:09.525Z,6.41
2022-12-29T00:42:40.689Z,6.52
2022-12-29T00:43:13.568Z,6.52
2022-12-29T00:43:44.700Z,6.52
2022-12-29T00:44:17.302Z,6.52
2022-12-29T00:44:48.563Z,6.52
2022-12-29T00:45:21.674Z,6.52
2022-12-29T00:45:52.620Z,6.52
2022-12-29T00:46:25.405Z,6.52
2022-12-29T00:46:56.588Z,6.62
2022-12-29T00:47:29.404Z,6.62
2022-12-29T00:48:00.540Z,6.62
2022-12-29T00:48:33.250Z,6.62
2022-12-29T00:49:04.391Z,6.62
2022-12-29T00:49:37.511Z,6.52
2022-12-29T00:50:08.456Z,6.52
2022-12-29T00:50:41.296Z,6.62
2022-12-29T00:51:12.303Z,6.62
2022-12-29T00:51:45.228Z,6.62
2022-12-29T00:52:16.327Z,6.62
2022-12-29T00:52:49.052Z,6.62
2022-12-29T00:53:20.157Z,6.62
2022-12-29T00:53:53.147Z,6.62
2022-12-29T00:54:24.261Z,6.62
2022-12-29T00:54:57.063Z,6.62
2022-12-29T00:55:28.122Z,6.62
2022-12-29T00:56:00.924Z,6.62
2022-12-29T00:56:32.202Z,6.80
2022-12-29T00:57:04.931Z,6.80
2022-12-29T00:57:36.018Z,6.62
2022-12-29T00:58:09.119Z,6.62
2022-12-29T00:58:40.088Z,6.62
2022-12-29T00:59:12.811Z,6.62
2022-12-29T00:59:43.975Z,6.62
2022-12-29T01:00:17.478Z,6.62
2022-12-29T01:00:48.047Z,6.62
2022-12-29T01:01:20.881Z,6.62
2022-12-29T01:01:51.952Z,6.62
2022-12-29T01:02:24.979Z,6.80
2022-12-29T01:02:56.032Z,6.62
2022-12-29T01:03:28.640Z,6.62
2022-12-29T01:04:03.747Z,6.62
2022-12-29T01:04:32.788Z,6.62
2022-12-29T01:05:03.839Z,6.62
2022-12-29T01:05:36.639Z,6.67
2022-12-29T01:06:07.730Z,6.67
2022-12-29T01:06:40.689Z,6.67
2022-12-29T01:07:11.765Z,6.67
2022-12-29T01:07:44.447Z,6.67
2022-12-29T01:08:15.591Z,6.67
2022-12-29T01:08:48.508Z,6.67
2022-12-29T01:09:19.627Z,6.67
2022-12-29T01:09:52.396Z,6.67
2022-12-29T01:10:23.544Z,6.67
2022-12-29T01:10:56.450Z,6.67
2022-12-29T01:11:27.469Z,6.67
2022-12-29T01:12:00.342Z,6.78
2022-12-29T01:12:33.484Z,6.78
2022-12-29T01:13:04.377Z,6.78
2022-12-29T01:13:35.277Z,6.78
2022-12-29T01:14:08.207Z,6.78
2022-12-29T01:14:39.369Z,6.78
2022-12-29T01:15:12.485Z,6.78
2022-12-29T01:15:43.229Z,6.78
2022-12-29T01:16:16.317Z,6.67
2022-12-29T01:16:47.291Z,6.67
2022-12-29T01:17:20.044Z,6.67
2022-12-29T01:17:51.115Z,6.78
2022-12-29T01:18:24.131Z,6.78
2022-12-29T01:18:55.332Z,6.78
2022-12-29T01:19:28.104Z,6.78
2022-12-29T01:19:59.087Z,6.78
2022-12-29T01:20:31.853Z,6.78
2022-12-29T01:21:03.210Z,6.78
2022-12-29T01:21:36.031Z,6.78
2022-12-29T01:22:07.016Z,6.78
2022-12-29T01:22:39.875Z,6.78
2022-12-29T01:23:11.025Z,6.78
2022-12-29T01:23:44.027Z,6.78
2022-12-29T01:24:14.895Z,6.67
2022-12-29T01:24:47.699Z,6.67
2022-12-29T01:25:18.927Z,6.85
2022-12-29T01:25:51.709Z,6.85
2022-12-29T01:26:22.842Z,6.85
2022-12-29T01:26:55.829Z,6.85
2022-12-29T01:27:26.876Z,6.85
2022-12-29T01:27:59.724Z,6.85
2022-12-29T01:28:30.651Z,6.85
2022-12-29T01:29:03.821Z,6.85
2022-12-29T01:29:35.379Z,6.85
2022-12-29T01:30:08.105Z,6.85
2022-12-29T01:30:38.902Z,6.85
2022-12-29T01:31:11.657Z,6.85
2022-12-29T01:31:42.709Z,6.85
2022-12-29T01:32:16.615Z,6.85
2022-12-29T01:32:46.668Z,6.85
2022-12-29T01:33:19.415Z,6.85
2022-12-29T01:33:50.562Z,6.85
2022-12-29T01:34:23.509Z,6.85
2022-12-29T01:34:54.396Z,6.85
2022-12-29T01:35:27.340Z,6.85
2022-12-29T01:35:58.562Z,6.85
2022-12-29T01:36:31.551Z,6.85
2022-12-29T01:37:02.392Z,6.85
2022-12-29T01:37:35.652Z,6.85
2022-12-29T01:38:06.394Z,6.85
2022-12-29T01:38:39.382Z,6.85
2022-12-29T01:39:10.250Z,6.85
2022-12-29T01:39:43.155Z,6.85
2022-12-29T01:40:14.442Z,6.85
2022-12-29T01:40:47.276Z,6.85
2022-12-29T01:41:18.237Z,6.96
2022-12-29T01:41:50.978Z,6.96
2022-12-29T01:42:22.235Z,6.78
2022-12-29T01:42:54.934Z,7.08
2022-12-29T01:43:26.204Z,7.08
2022-12-29T01:43:59.046Z,7.08
2022-12-29T01:44:30.100Z,7.08
2022-12-29T01:45:03.054Z,7.08
2022-12-29T01:45:34.028Z,7.08
2022-12-29T01:46:07.002Z,7.08
2022-12-29T01:46:38.076Z,7.08
2022-12-29T01:47:10.830Z,7.08
2022-12-29T01:47:41.929Z,7.08
2022-12-29T01:48:14.831Z,7.08
2022-12-29T01:48:45.928Z,7.08
2022-12-29T01:49:18.666Z,7.08
2022-12-29T01:49:49.844Z,7.08
2022-12-29T01:50:22.625Z,7.08
2022-12-29T01:50:53.877Z,7.08
2022-12-29T01:51:26.616Z,7.08
2022-12-29T01:51:57.777Z,7.08
2022-12-29T01:52:30.659Z,7.08
2022-12-29T01:53:01.922Z,7.08
2022-12-29T01:53:34.684Z,7.08
2022-12-29T01:54:05.696Z,7.08
2022-12-29T01:54:38.758Z,7.08
2022-12-29T01:55:10.340Z,7.08
2022-12-29T01:55:43.303Z,7.08
2022-12-29T01:56:13.575Z,7.08
2022-12-29T01:56:46.411Z,7.08
2022-12-29T01:57:17.603Z,7.08
2022-12-29T01:57:50.414Z,7.08
2022-12-29T01:58:21.460Z,7.08
2022-12-29T01:58:54.529Z,7.08
2022-12-29T01:59:25.538Z,7.08
2022-12-29T01:59:58.174Z,7.24
2022-12-29T02:00:29.604Z,7.08
2022-12-29T02:01:02.365Z,7.08
2022-12-29T02:01:33.660Z,7.08
2022-12-29T02:02:06.246Z,7.08
2022-12-29T02:02:37.566Z,7.08
2022-12-29T02:03:10.404Z,7.08
2022-12-29T02:03:41.468Z,7.08
2022-12-29T02:04:14.115Z,7.08
2022-12-29T02:04:45.927Z,7.18
2022-12-29T02:05:18.147Z,7.18
2022-12-29T02:05:49.307Z,7.18
2022-12-29T02:06:22.092Z,7.18
2022-12-29T02:06:53.178Z,7.18
2022-12-29T02:07:26.088Z,7.18
2022-12-29T02:07:57.214Z,7.18
2022-12-29T02:08:29.898Z,7.18
2022-12-29T02:09:01.093Z,7.18
2022-12-29T02:09:33.915Z,7.18
2022-12-29T02:10:05.144Z,7.18
2022-12-29T02:10:37.901Z,7.18
2022-12-29T02:11:08.977Z,7.18
2022-12-29T02:11:41.943Z,7.29
2022-12-29T02:12:12.865Z,7.29
2022-12-29T02:12:45.762Z,7.29
2022-12-29T02:13:16.916Z,7.29
2022-12-29T02:13:49.794Z,7.11
2022-12-29T02:14:20.729Z,7.11
2022-12-29T02:14:53.696Z,7.11
2022-12-29T02:15:25.016Z,7.16
2022-12-29T02:15:57.800Z,7.16
2022-12-29T02:16:28.717Z,7.16
2022-12-29T02:17:01.645Z,7.16
2022-12-29T02:17:32.763Z,7.16
2022-12-29T02:18:05.802Z,7.16
2022-12-29T02:18:36.590Z,7.16
2022-12-29T02:19:09.428Z,7.16
2022-12-29T02:19:40.636Z,7.16
2022-12-29T02:20:13.645Z,7.16
2022-12-29T02:20:44.497Z,7.16
2022-12-29T02:21:17.542Z,7.16
2022-12-29T02:21:48.633Z,7.16
2022-12-29T02:22:21.452Z,7.27
2022-12-29T02:22:52.448Z,7.27
2022-12-29T02:23:25.414Z,7.27
2022-12-29T02:23:56.469Z,7.27
2022-12-29T02:24:29.411Z,7.27
2022-12-29T02:25:00.479Z,7.27
2022-12-29T02:25:33.327Z,7.27
2022-12-29T02:26:04.557Z,7.27
2022-12-29T02:26:37.160Z,7.27
2022-12-29T02:27:08.226Z,7.16
2022-12-29T02:27:41.187Z,7.16
2022-12-29T02:28:12.343Z,7.16
2022-12-29T02:28:45.247Z,7.16
2022-12-29T02:29:16.137Z,7.16
2022-12-29T02:29:49.244Z,7.27
2022-12-29T02:30:20.386Z,7.27
2022-12-29T02:30:53.285Z,7.27
2022-12-29T02:31:24.149Z,7.27
2022-12-29T02:31:57.111Z,7.27
2022-12-29T02:32:28.164Z,7.27
2022-12-29T02:33:00.862Z,7.27
2022-12-29T02:33:32.253Z,7.27
2022-12-29T02:34:05.064Z,7.27
2022-12-29T02:34:36.111Z,7.27
2022-12-29T02:35:08.731Z,7.27
2022-12-29T02:35:39.893Z,7.27
2022-12-29T02:36:12.917Z,7.27
2022-12-29T02:36:44.023Z,7.38
2022-12-29T02:37:16.739Z,7.38
2022-12-29T02:37:48.804Z,7.38
2022-12-29T02:38:20.780Z,7.38
2022-12-29T02:38:51.906Z,7.27
2022-12-29T02:39:24.600Z,7.27
2022-12-29T02:39:55.794Z,7.27
2022-12-29T02:40:28.797Z,7.27
2022-12-29T02:40:59.801Z,7.27
2022-12-29T02:41:32.525Z,7.27
2022-12-29T02:42:03.763Z,7.27
2022-12-29T02:42:36.613Z,7.27
2022-12-29T02:43:07.851Z,7.27
2022-12-29T02:43:40.511Z,7.27
2022-12-29T02:44:11.643Z,7.27
2022-12-29T02:44:44.572Z,7.27
2022-12-29T02:45:15.628Z,7.27
2022-12-29T02:45:48.394Z,7.38
2022-12-29T02:46:19.557Z,7.38
2022-12-29T02:46:52.485Z,7.38
2022-12-29T02:47:23.388Z,7.38
2022-12-29T02:47:56.320Z,7.38
2022-12-29T02:48:27.460Z,7.38
2022-12-29T02:49:00.384Z,7.38
2022-12-29T02:49:31.311Z,7.38
2022-12-29T02:50:04.308Z,7.38
2022-12-29T02:50:35.796Z,7.38
2022-12-29T02:51:08.237Z,7.38
2022-12-29T02:51:39.239Z,7.38
2022-12-29T02:52:12.040Z,7.38
2022-12-29T02:52:43.285Z,7.38
2022-12-29T02:53:16.122Z,7.49
2022-12-29T02:53:47.120Z,7.49
2022-12-29T02:54:20.054Z,7.49
2022-12-29T02:54:51.185Z,7.49
2022-12-29T02:55:24.068Z,7.49
2022-12-29T02:55:55.041Z,7.49
2022-12-29T02:56:27.944Z,7.49
2022-12-29T02:56:59.126Z,7.49
2022-12-29T02:57:31.689Z,7.49
2022-12-29T02:58:02.970Z,7.49
2022-12-29T02:58:35.896Z,7.49
2022-12-29T02:59:07.010Z,7.49
2022-12-29T02:59:39.616Z,7.49
2022-12-29T03:00:11.257Z,7.49
2022-12-29T03:00:43.902Z,7.49
2022-12-29T03:01:14.917Z,7.49
2022-12-29T03:01:47.768Z,7.49
2022-12-29T03:02:19.033Z,7.49
2022-12-29T03:02:51.669Z,7.49
2022-12-29T03:03:22.889Z,7.67
2022-12-29T03:03:55.584Z,7.49
2022-12-29T03:04:26.707Z,7.67
2022-12-29T03:04:59.614Z,7.67
2022-12-29T03:05:30.740Z,7.49
2022-12-29T03:06:03.516Z,7.49
2022-12-29T03:06:34.646Z,7.49
2022-12-29T03:07:07.560Z,7.49
2022-12-29T03:07:38.724Z,7.60
2022-12-29T03:08:11.454Z,7.60
2022-12-29T03:08:42.508Z,7.60
2022-12-29T03:09:19.112Z,7.78
2022-12-29T03:09:46.581Z,7.78
2022-12-29T03:10:19.325Z,7.67
2022-12-29T03:10:50.492Z,7.49
2022-12-29T03:11:23.405Z,7.49
2022-12-29T03:11:54.515Z,7.49
2022-12-29T03:12:27.241Z,7.67
2022-12-29T03:12:58.427Z,7.67
2022-12-29T03:13:32.075Z,7.67
2022-12-29T03:14:02.484Z,7.67
2022-12-29T03:14:35.753Z,7.67
2022-12-29T03:15:06.578Z,7.67
2022-12-29T03:15:40.216Z,7.67
2022-12-29T03:16:10.316Z,7.67
2022-12-29T03:16:43.169Z,7.67
2022-12-29T03:17:14.431Z,7.67
2022-12-29T03:17:47.132Z,7.56
2022-12-29T03:18:18.263Z,7.56
2022-12-29T03:18:50.983Z,7.56
2022-12-29T03:19:22.046Z,7.56
2022-12-29T03:19:54.988Z,7.56
2022-12-29T03:20:26.169Z,7.56
2022-12-29T03:20:58.761Z,7.56
2022-12-29T03:21:30.068Z,7.56
2022-12-29T03:22:02.973Z,7.56
2022-12-29T03:22:33.853Z,7.56
2022-12-29T03:23:06.817Z,7.56
2022-12-29T03:23:37.972Z,7.56
2022-12-29T03:24:10.807Z,7.56
2022-12-29T03:24:42.004Z,7.56
2022-12-29T03:25:14.754Z,7.56
2022-12-29T03:25:45.844Z,7.56
2022-12-29T03:26:18.652Z,7.56
2022-12-29T03:26:49.681Z,7.56
2022-12-29T03:27:22.505Z,7.56
2022-12-29T03:27:53.734Z,7.56
2022-12-29T03:28:26.627Z,7.38
2022-12-29T03:28:57.579Z,7.38
2022-12-29T03:29:30.534Z,7.38
2022-12-29T03:30:01.980Z,7.49
2022-12-29T03:30:34.859Z,7.49
2022-12-29T03:31:05.568Z,7.49
2022-12-29T03:31:38.454Z,7.49
2022-12-29T03:32:10.201Z,7.67
2022-12-29T03:32:42.527Z,7.67
2022-12-29T03:33:13.444Z,7.67
2022-12-29T03:33:46.765Z,7.38
2022-12-29T03:34:17.525Z,7.38
2022-12-29T03:34:50.427Z,7.56
2022-12-29T03:35:21.381Z,7.38
2022-12-29T03:35:54.248Z,7.49
2022-12-29T03:36:25.375Z,7.49
2022-12-29T03:36:58.530Z,7.49
2022-12-29T03:37:29.255Z,7.49
2022-12-29T03:38:02.239Z,7.49
2022-12-29T03:38:33.315Z,7.49
2022-12-29T03:39:06.266Z,7.49
2022-12-29T03:39:37.145Z,7.49
2022-12-29T03:40:10.124Z,7.49
2022-12-29T03:40:41.272Z,7.49
2022-12-29T03:41:14.185Z,7.67
2022-12-29T03:41:45.103Z,7.56
2022-12-29T03:42:18.037Z,7.56
2022-12-29T03:42:49.146Z,7.56
2022-12-29T03:43:22.131Z,7.56
2022-12-29T03:43:52.962Z,7.56
2022-12-29T03:44:25.960Z,7.56
2022-12-29T03:44:57.081Z,7.56
2022-12-29T03:45:30.026Z,7.56
2022-12-29T03:46:01.048Z,7.56
2022-12-29T03:46:33.968Z,7.56
2022-12-29T03:47:04.943Z,7.56
2022-12-29T03:47:37.962Z,7.56
2022-12-29T03:48:08.876Z,7.38
2022-12-29T03:48:41.724Z,7.38
2022-12-29T03:49:12.881Z,7.38
2022-12-29T03:49:45.781Z,7.38
2022-12-29T03:50:16.722Z,7.49
2022-12-29T03:50:49.666Z,7.49
2022-12-29T03:51:20.801Z,7.49
2022-12-29T03:51:53.783Z,7.49
2022-12-29T03:52:24.671Z,7.49
2022-12-29T03:52:57.549Z,7.49
2022-12-29T03:53:28.731Z,7.49
2022-12-29T03:54:01.676Z,7.49
2022-12-29T03:54:32.613Z,7.49
2022-12-29T03:55:05.518Z,7.38
2022-12-29T03:55:36.612Z,7.38
2022-12-29T03:56:09.533Z,7.38
2022-12-29T03:56:40.487Z,7.38
2022-12-29T03:57:13.290Z,7.38
2022-12-29T03:57:44.523Z,7.38
2022-12-29T03:58:17.564Z,7.38
2022-12-29T03:58:48.438Z,7.49
2022-12-29T03:59:21.226Z,7.49
2022-12-29T03:59:52.463Z,7.49
2022-12-29T04:00:25.569Z,7.49
2022-12-29T04:00:56.336Z,7.49
2022-12-29T04:01:29.352Z,7.49
2022-12-29T04:02:00.570Z,7.49
2022-12-29T04:02:33.219Z,7.49
2022-12-29T04:03:04.340Z,7.49
2022-12-29T04:03:37.383Z,7.31
2022-12-29T04:04:08.295Z,7.31
2022-12-29T04:04:41.028Z,7.31
2022-12-29T04:05:12.123Z,7.31
2022-12-29T04:05:45.116Z,7.42
2022-12-29T04:06:16.201Z,7.42
2022-12-29T04:06:48.957Z,7.60
2022-12-29T04:07:20.026Z,7.60
2022-12-29T04:07:53.011Z,7.42
2022-12-29T04:08:24.142Z,7.42
2022-12-29T04:08:56.956Z,7.42
2022-12-29T04:09:27.936Z,7.42
2022-12-29T04:10:01.159Z,7.42
2022-12-29T04:10:32.061Z,7.42
2022-12-29T04:11:04.766Z,7.60
2022-12-29T04:11:35.922Z,7.42
2022-12-29T04:12:08.827Z,7.60
2022-12-29T04:12:39.972Z,7.60
2022-12-29T04:13:12.786Z,7.60
2022-12-29T04:13:43.826Z,7.60
2022-12-29T04:14:16.738Z,7.60
2022-12-29T04:14:47.827Z,7.49
2022-12-29T04:15:20.781Z,7.49
2022-12-29T04:15:51.730Z,7.49
2022-12-29T04:16:24.703Z,7.49
2022-12-29T04:16:56.820Z,7.49
2022-12-29T04:17:28.417Z,7.49
2022-12-29T04:17:59.714Z,7.49
2022-12-29T04:18:32.709Z,7.49
2022-12-29T04:19:03.761Z,7.49
2022-12-29T04:19:36.414Z,7.60
2022-12-29T04:20:07.579Z,7.60
2022-12-29T04:20:40.476Z,7.60
2022-12-29T04:21:11.440Z,7.60
2022-12-29T04:21:44.345Z,7.60
2022-12-29T04:22:15.465Z,7.60
2022-12-29T04:22:48.360Z,7.49
2022-12-29T04:23:19.498Z,7.67
2022-12-29T04:23:52.275Z,7.49
2022-12-29T04:24:23.497Z,7.49
2022-12-29T04:24:56.179Z,7.49
2022-12-29T04:25:27.458Z,7.49
2022-12-29T04:26:00.209Z,7.49
2022-12-29T04:26:31.356Z,7.49
2022-12-29T04:27:04.184Z,7.49
2022-12-29T04:27:35.158Z,7.49
2022-12-29T04:28:08.066Z,7.49
2022-12-29T04:28:39.190Z,7.49
2022-12-29T04:29:12.026Z,7.49
2022-12-29T04:29:43.261Z,7.49
2022-12-29T04:30:16.222Z,7.49
2022-12-29T04:30:47.194Z,7.67
2022-12-29T04:31:20.214Z,7.67
2022-12-29T04:31:51.169Z,7.67
2022-12-29T04:32:23.822Z,7.67
2022-12-29T04:32:55.360Z,7.67
2022-12-29T04:33:27.960Z,7.67
2022-12-29T04:33:58.908Z,7.56
2022-12-29T04:34:31.873Z,7.56
2022-12-29T04:35:02.964Z,7.56
2022-12-29T04:35:36.335Z,7.56
2022-12-29T04:36:06.802Z,7.56
2022-12-29T04:36:39.704Z,7.56
2022-12-29T04:37:10.858Z,7.56
2022-12-29T04:37:43.821Z,7.56
2022-12-29T04:38:14.714Z,7.56
2022-12-29T04:38:47.758Z,7.56
2022-12-29T04:39:18.823Z,7.56
2022-12-29T04:39:51.757Z,7.56
2022-12-29T04:40:22.621Z,7.56
2022-12-29T04:40:55.525Z,7.56
2022-12-29T04:41:26.711Z,7.56
2022-12-29T04:41:59.558Z,7.56
2022-12-29T04:42:30.605Z,7.56
2022-12-29T04:43:03.542Z,7.56
2022-12-29T04:43:34.636Z,7.56
2022-12-29T04:44:07.496Z,7.56
2022-12-29T04:44:44.729Z,7.45
2022-12-29T04:45:11.550Z,7.45
2022-12-29T04:45:42.515Z,7.62
2022-12-29T04:46:15.510Z,7.62
2022-12-29T04:46:46.475Z,7.62
2022-12-29T04:47:19.261Z,7.62
2022-12-29T04:47:50.456Z,7.56
2022-12-29T04:48:23.489Z,7.56
2022-12-29T04:48:54.286Z,7.56
2022-12-29T04:49:27.161Z,7.73
2022-12-29T04:49:58.339Z,7.73
2022-12-29T04:50:31.266Z,7.73
2022-12-29T04:51:02.199Z,7.73
2022-12-29T04:51:35.333Z,7.73
2022-12-29T04:52:06.274Z,7.73
2022-12-29T04:52:39.192Z,7.73
2022-12-29T04:53:10.132Z,7.73
2022-12-29T04:53:43.037Z,7.73
2022-12-29T04:54:14.187Z,7.62
2022-12-29T04:54:47.175Z,7.62
2022-12-29T04:55:17.974Z,7.62
2022-12-29T04:55:50.979Z,7.62
2022-12-29T04:56:22.108Z,7.62
2022-12-29T04:56:55.013Z,7.62
2022-12-29T04:57:25.926Z,7.62
2022-12-29T04:57:58.814Z,7.62
2022-12-29T04:58:30.031Z,7.73
2022-12-29T04:59:02.963Z,7.73
2022-12-29T04:59:33.898Z,7.73
2022-12-29T05:00:07.126Z,7.73
2022-12-29T05:00:37.927Z,7.73
2022-12-29T05:01:10.633Z,7.73
2022-12-29T05:01:41.912Z,7.73
2022-12-29T05:02:14.811Z,7.73
2022-12-29T05:02:45.991Z,7.73
2022-12-29T05:03:18.695Z,7.73
2022-12-29T05:03:49.818Z,7.73
2022-12-29T05:04:22.579Z,7.73
2022-12-29T05:04:53.796Z,7.73
2022-12-29T05:05:26.648Z,7.73
2022-12-29T05:05:57.618Z,7.73
2022-12-29T05:06:30.535Z,7.73
2022-12-29T05:07:01.709Z,7.73
2022-12-29T05:07:34.520Z,7.73
2022-12-29T05:08:05.580Z,7.73
2022-12-29T05:08:38.561Z,7.73
2022-12-29T05:09:09.542Z,7.73
2022-12-29T05:09:42.295Z,7.73
2022-12-29T05:10:13.468Z,7.73
2022-12-29T05:10:46.346Z,7.73
2022-12-29T05:11:17.512Z,7.73
2022-12-29T05:11:50.177Z,7.73
2022-12-29T05:12:21.392Z,7.73
2022-12-29T05:12:54.258Z,7.73
2022-12-29T05:13:25.384Z,7.62
2022-12-29T05:13:58.192Z,7.62
2022-12-29T05:14:29.385Z,7.62
2022-12-29T05:15:02.412Z,7.62
2022-12-29T05:15:33.266Z,7.62
2022-12-29T05:16:06.095Z,7.62
2022-12-29T05:16:37.319Z,7.62
2022-12-29T05:17:10.123Z,7.62
2022-12-29T05:17:41.261Z,7.62
2022-12-29T05:18:13.991Z,7.62
2022-12-29T05:18:45.129Z,7.62
2022-12-29T05:19:18.056Z,7.62
2022-12-29T05:19:49.116Z,7.62
2022-12-29T05:20:21.903Z,7.62
2022-12-29T05:20:53.022Z,7.62
2022-12-29T05:21:25.962Z,7.62
2022-12-29T05:21:56.927Z,7.62
2022-12-29T05:22:29.787Z,7.62
2022-12-29T05:23:01.226Z,7.73
2022-12-29T05:23:33.907Z,7.73
2022-12-29T05:24:04.759Z,7.73
2022-12-29T05:24:37.695Z,7.73
2022-12-29T05:25:08.810Z,7.73
2022-12-29T05:25:41.694Z,7.73
2022-12-29T05:26:12.738Z,7.73
2022-12-29T05:26:45.590Z,7.73
2022-12-29T05:27:16.759Z,7.73
2022-12-29T05:27:49.635Z,7.73
2022-12-29T05:28:20.654Z,7.73
2022-12-29T05:28:53.555Z,7.62
2022-12-29T05:29:24.668Z,7.62
2022-12-29T05:29:57.617Z,7.62
2022-12-29T05:30:28.689Z,7.62
2022-12-29T05:31:01.608Z,7.73
2022-12-29T05:31:32.592Z,7.73
2022-12-29T05:32:05.508Z,7.73
2022-12-29T05:32:36.559Z,7.73
2022-12-29T05:33:09.359Z,7.73
2022-12-29T05:33:40.508Z,7.73
2022-12-29T05:34:13.434Z,7.73
2022-12-29T05:34:44.350Z,7.73
2022-12-29T05:35:17.235Z,7.73
2022-12-29T05:35:48.386Z,7.73
2022-12-29T05:36:21.334Z,7.73
2022-12-29T05:36:52.288Z,7.73
2022-12-29T05:37:25.176Z,7.73
2022-12-29T05:37:56.359Z,7.73
2022-12-29T05:38:29.292Z,7.73
2022-12-29T05:39:00.197Z,7.73
2022-12-29T05:39:33.088Z,7.73
2022-12-29T05:40:04.258Z,7.73
2022-12-29T05:40:37.033Z,7.62
2022-12-29T05:41:08.077Z,7.62
2022-12-29T05:41:41.074Z,7.62
2022-12-29T05:42:12.192Z,7.62
2022-12-29T05:42:45.295Z,7.62
2022-12-29T05:43:15.969Z,7.62
2022-12-29T05:43:48.935Z,7.62
2022-12-29T05:44:20.074Z,7.73
2022-12-29T05:44:53.042Z,7.73
2022-12-29T05:45:24.167Z,7.73
2022-12-29T05:45:56.752Z,7.73
2022-12-29T05:46:28.083Z,7.73
2022-12-29T05:47:00.921Z,7.62
2022-12-29T05:47:31.877Z,7.62
2022-12-29T05:48:04.765Z,7.62
2022-12-29T05:48:38.103Z,7.62
2022-12-29T05:49:08.808Z,7.73
2022-12-29T05:49:39.800Z,7.73
2022-12-29T05:50:12.793Z,7.73
2022-12-29T05:50:43.799Z,7.73
2022-12-29T05:51:16.521Z,7.73
2022-12-29T05:51:47.726Z,7.73
2022-12-29T05:52:20.585Z,7.73
2022-12-29T05:52:51.763Z,7.73
2022-12-29T05:53:25.337Z,7.73
2022-12-29T05:53:55.582Z,7.73
2022-12-29T05:54:28.552Z,7.73
2022-12-29T05:54:59.672Z,7.73
2022-12-29T05:55:32.279Z,7.73
2022-12-29T05:56:03.507Z,7.56
2022-12-29T05:56:36.574Z,7.56
2022-12-29T05:57:07.579Z,7.67
2022-12-29T05:57:40.292Z,7.67
2022-12-29T05:58:11.456Z,7.78
2022-12-29T05:58:45.058Z,7.78
2022-12-29T05:59:15.458Z,7.78
2022-12-29T05:59:48.204Z,7.78
2022-12-29T06:00:19.549Z,7.78
2022-12-29T06:00:52.288Z,7.95
2022-12-29T06:01:23.490Z,7.84
2022-12-29T06:01:56.340Z,7.84
2022-12-29T06:02:27.447Z,7.84
2022-12-29T06:03:00.250Z,7.84
2022-12-29T06:03:31.446Z,7.67
2022-12-29T06:04:04.213Z,7.56
2022-12-29T06:04:35.361Z,7.84
2022-12-29T06:05:08.150Z,7.84
2022-12-29T06:05:39.185Z,7.84
2022-12-29T06:06:12.078Z,7.84
2022-12-29T06:06:43.044Z,7.67
2022-12-29T06:07:15.978Z,7.67
2022-12-29T06:07:47.109Z,7.67
2022-12-29T06:08:21.035Z,7.67
2022-12-29T06:08:51.007Z,7.67
2022-12-29T06:09:23.964Z,7.67
2022-12-29T06:09:55.071Z,7.67
2022-12-29T06:10:27.817Z,7.67
2022-12-29T06:10:58.888Z,7.67
2022-12-29T06:11:31.845Z,7.67
2022-12-29T06:12:02.785Z,7.84
2022-12-29T06:12:36.056Z,7.84
2022-12-29T06:13:06.814Z,7.73
2022-12-29T06:13:39.886Z,7.73
2022-12-29T06:14:10.665Z,7.73
2022-12-29T06:14:43.697Z,7.73
2022-12-29T06:15:14.931Z,7.73
2022-12-29T06:15:47.655Z,7.73
2022-12-29T06:16:18.734Z,7.73
2022-12-29T06:16:51.560Z,7.73
2022-12-29T06:17:22.621Z,7.73
2022-12-29T06:17:55.582Z,7.73
2022-12-29T06:18:26.549Z,7.73
2022-12-29T06:18:59.420Z,7.84
2022-12-29T06:19:30.548Z,7.84
2022-12-29T06:20:03.518Z,7.84
2022-12-29T06:20:34.513Z,7.84
2022-12-29T06:21:07.381Z,7.67
2022-12-29T06:21:38.479Z,7.67
2022-12-29T06:22:11.506Z,7.67
2022-12-29T06:22:42.355Z,7.84
2022-12-29T06:23:15.334Z,7.84
2022-12-29T06:23:46.633Z,7.84
2022-12-29T06:24:19.346Z,7.67
2022-12-29T06:24:50.224Z,7.84
2022-12-29T06:25:23.220Z,7.84
2022-12-29T06:25:54.289Z,7.84
2022-12-29T06:26:27.227Z,7.67
2022-12-29T06:26:58.149Z,7.67
2022-12-29T06:27:31.105Z,7.67
2022-12-29T06:28:02.231Z,7.78
2022-12-29T06:28:35.207Z,7.78
2022-12-29T06:29:06.107Z,7.78
2022-12-29T06:29:38.922Z,7.78
2022-12-29T06:30:10.589Z,7.78
2022-12-29T06:30:43.019Z,7.78
2022-12-29T06:31:14.042Z,7.78
2022-12-29T06:31:47.098Z,7.67
2022-12-29T06:32:18.026Z,7.67
2022-12-29T06:32:50.851Z,7.67
2022-12-29T06:33:21.989Z,7.84
2022-12-29T06:33:54.853Z,7.84
2022-12-29T06:34:25.962Z,7.84
2022-12-29T06:34:58.850Z,7.84
2022-12-29T06:35:29.818Z,7.84
2022-12-29T06:36:02.748Z,7.84
2022-12-29T06:36:33.886Z,7.73
2022-12-29T06:37:06.825Z,7.73
2022-12-29T06:37:37.728Z,7.73
2022-12-29T06:38:10.977Z,7.73
2022-12-29T06:38:41.795Z,7.73
2022-12-29T06:39:14.739Z,7.73
2022-12-29T06:39:45.649Z,7.73
2022-12-29T06:40:18.583Z,7.73
2022-12-29T06:40:49.716Z,7.73
2022-12-29T06:41:29.967Z,7.73
2022-12-29T06:41:53.679Z,7.84
2022-12-29T06:42:26.598Z,7.84
2022-12-29T06:42:58.193Z,7.84
2022-12-29T06:43:30.383Z,7.84
2022-12-29T06:44:01.506Z,7.84
2022-12-29T06:44:34.386Z,7.73
2022-12-29T06:45:05.956Z,7.73
2022-12-29T06:45:38.504Z,7.73
2022-12-29T06:46:09.455Z,7.73
2022-12-29T06:46:42.566Z,7.73
2022-12-29T06:47:13.509Z,7.73
2022-12-29T06:47:46.181Z,7.73
2022-12-29T06:48:17.262Z,7.73
2022-12-29T06:48:50.179Z,7.73
2022-12-29T06:49:21.359Z,7.73
2022-12-29T06:49:54.242Z,7.73
2022-12-29T06:50:25.204Z,7.73
2022-12-29T06:50:58.135Z,7.73
2022-12-29T06:51:29.339Z,7.73
2022-12-29T06:52:02.758Z,7.73
2022-12-29T06:52:33.118Z,7.73
2022-12-29T06:53:06.147Z,7.73
2022-12-29T06:53:37.190Z,7.73
2022-12-29T06:54:09.894Z,7.73
2022-12-29T06:54:41.081Z,7.73
2022-12-29T06:55:13.953Z,7.73
2022-12-29T06:55:45.090Z,7.73
2022-12-29T06:56:17.841Z,7.84
2022-12-29T06:56:48.985Z,7.84
2022-12-29T06:57:21.907Z,7.84
2022-12-29T06:57:53.036Z,7.84
2022-12-29T06:58:25.875Z,7.84
2022-12-29T06:58:56.846Z,7.84
2022-12-29T06:59:29.802Z,7.84
2022-12-29T07:00:01.480Z,7.84
2022-12-29T07:00:33.652Z,7.84
2022-12-29T07:01:04.830Z,7.84
2022-12-29T07:01:38.859Z,7.84
2022-12-29T07:02:09.018Z,7.84
2022-12-29T07:02:41.710Z,7.84
2022-12-29T07:03:12.754Z,7.84
2022-12-29T07:03:45.695Z,7.84
2022-12-29T07:04:16.722Z,7.84
2022-12-29T07:04:49.676Z,7.84
2022-12-29T07:05:20.651Z,7.84